createdAt,value
2019-02-21T00:00:43.233Z,0.00
2019-02-21T00:01:43.255Z,0.00
2019-02-21T00:02:43.209Z,0.00
2019-02-21T00:03:43.223Z,0.00
2019-02-21T00:04:43.195Z,0.00
2019-02-21T00:05:43.173Z,0.00
2019-02-21T00:06:43.165Z,0.00
2019-02-21T00:07:43.159Z,0.00
2019-02-21T00:08:43.192Z,0.00
2019-02-21T00:09:43.131Z,0.00
2019-02-21T00:10:43.120Z,0.00
2019-02-21T00:11:43.109Z,0.00
2019-02-21T00:12:43.106Z,0.00
2019-02-21T00:13:43.088Z,0.00
2019-02-21T00:14:43.107Z,0.00
2019-02-21T00:15:43.065Z,0.00
2019-02-21T00:16:43.054Z,0.00
2019-02-21T00:17:43.051Z,0.00
2019-02-21T00:18:43.042Z,0.00
2019-02-21T00:19:43.055Z,0.00
2019-02-21T00:20:43.020Z,0.00
2019-02-21T00:21:43.001Z,0.00
2019-02-21T00:22:42.991Z,0.00
2019-02-21T00:23:42.987Z,0.00
2019-02-21T00:24:43.040Z,0.00
2019-02-21T00:25:42.960Z,0.00
2019-02-21T00:26:44.313Z,0.00
2019-02-21T00:27:42.938Z,0.00
2019-02-21T00:28:42.956Z,0.00
2019-02-21T00:29:42.920Z,0.00
2019-02-21T00:30:42.923Z,0.00
2019-02-21T00:31:42.892Z,0.00
2019-02-21T00:32:42.887Z,0.00
2019-02-21T00:33:42.875Z,0.00
2019-02-21T00:34:42.895Z,0.00
2019-02-21T00:35:42.851Z,0.00
2019-02-21T00:36:42.843Z,0.00
2019-02-21T00:37:42.846Z,0.00
2019-02-21T00:38:42.819Z,0.00
2019-02-21T00:39:42.808Z,0.00
2019-02-21T00:40:42.796Z,0.00
2019-02-21T00:41:42.785Z,0.00
2019-02-21T00:42:42.803Z,0.00
2019-02-21T00:43:42.766Z,0.00
2019-02-21T00:44:42.753Z,0.00
2019-02-21T00:45:42.745Z,0.00
2019-02-21T00:46:42.776Z,0.00
2019-02-21T00:47:42.757Z,0.00
2019-02-21T00:48:42.726Z,0.00
2019-02-21T00:49:42.701Z,0.00
2019-02-21T00:50:42.688Z,0.00
2019-02-21T00:51:42.700Z,0.00
2019-02-21T00:52:42.668Z,0.00
2019-02-21T00:53:42.680Z,0.00
2019-02-21T00:54:42.712Z,0.00
2019-02-21T00:55:42.683Z,0.00
2019-02-21T00:56:42.626Z,0.00
2019-02-21T00:57:42.619Z,0.00
2019-02-21T00:58:42.601Z,0.00
2019-02-21T00:59:42.598Z,0.00
2019-02-21T01:00:46.475Z,0.00
2019-02-21T01:01:42.602Z,0.00
2019-02-21T01:02:42.569Z,0.00
2019-02-21T01:03:42.575Z,0.00
2019-02-21T01:04:42.539Z,0.00
2019-02-21T01:05:42.528Z,0.00
2019-02-21T01:06:42.517Z,0.00
2019-02-21T01:07:42.525Z,0.00
2019-02-21T01:08:42.492Z,0.00
2019-02-21T01:09:42.481Z,0.00
2019-02-21T01:10:42.471Z,0.00
2019-02-21T01:11:42.462Z,0.00
2019-02-21T01:12:42.455Z,0.00
2019-02-21T01:13:42.473Z,0.00
2019-02-21T01:14:42.426Z,0.00
2019-02-21T01:15:42.461Z,0.00
2019-02-21T01:16:42.405Z,0.00
2019-02-21T01:17:42.394Z,0.00
2019-02-21T01:18:42.386Z,0.00
2019-02-21T01:19:42.388Z,0.00
2019-02-21T01:20:42.395Z,0.00
2019-02-21T01:21:42.351Z,0.00
2019-02-21T01:22:42.341Z,0.00
2019-02-21T01:23:42.332Z,0.00
2019-02-21T01:24:42.350Z,0.00
2019-02-21T01:25:42.310Z,0.00
2019-02-21T01:26:42.297Z,0.00
2019-02-21T01:27:42.310Z,0.00
2019-02-21T01:28:42.279Z,0.00
2019-02-21T01:29:42.267Z,0.00
2019-02-21T01:30:42.260Z,0.00
2019-02-21T01:31:42.259Z,0.00
2019-02-21T01:32:42.233Z,0.00
2019-02-21T01:33:42.223Z,0.00
2019-02-21T01:34:42.209Z,0.00
2019-02-21T01:35:42.235Z,0.00
2019-02-21T01:36:42.372Z,0.00
2019-02-21T01:37:42.209Z,0.00
2019-02-21T01:38:42.166Z,0.00
2019-02-21T01:39:42.153Z,0.00
2019-02-21T01:40:42.144Z,0.00
2019-02-21T01:41:42.132Z,0.00
2019-02-21T01:42:42.153Z,0.00
2019-02-21T01:43:42.189Z,0.00
2019-02-21T01:44:42.104Z,0.00
2019-02-21T01:45:42.088Z,0.00
2019-02-21T01:46:42.081Z,0.00
2019-02-21T01:47:42.099Z,0.00
2019-02-21T01:48:42.057Z,0.00
2019-02-21T01:49:42.049Z,0.00
2019-02-21T01:50:42.034Z,0.00
2019-02-21T01:51:42.027Z,0.00
2019-02-21T01:52:42.044Z,0.00
2019-02-21T01:53:42.006Z,0.00
2019-02-21T01:54:42.041Z,0.00
2019-02-21T01:55:41.981Z,0.00
2019-02-21T01:56:41.967Z,0.00
2019-02-21T01:57:41.959Z,0.00
2019-02-21T01:58:41.946Z,0.00
2019-02-21T01:59:41.939Z,0.00
2019-02-21T02:00:41.975Z,0.00
2019-02-21T02:01:41.916Z,0.00
2019-02-21T02:02:41.906Z,0.00
2019-02-21T02:03:41.892Z,0.00
2019-02-21T02:04:41.879Z,0.00
2019-02-21T02:05:41.869Z,0.00
2019-02-21T02:06:41.892Z,0.00
2019-02-21T02:07:41.848Z,0.00
2019-02-21T02:08:41.837Z,0.00
2019-02-21T02:09:41.834Z,0.00
2019-02-21T02:10:41.870Z,0.00
2019-02-21T02:11:41.813Z,0.00
2019-02-21T02:12:41.796Z,0.00
2019-02-21T02:13:41.783Z,0.00
2019-02-21T02:14:41.774Z,0.00
2019-02-21T02:15:41.759Z,0.00
2019-02-21T02:16:41.783Z,0.00
2019-02-21T02:17:41.738Z,0.00
2019-02-21T02:18:41.759Z,0.00
2019-02-21T02:19:41.720Z,0.00
2019-02-21T02:20:41.722Z,0.00
2019-02-21T02:21:41.700Z,0.00
2019-02-21T02:22:41.685Z,0.00
2019-02-21T02:23:41.713Z,0.00
2019-02-21T02:24:41.687Z,0.00
2019-02-21T02:25:41.654Z,0.00
2019-02-21T02:26:41.651Z,0.00
2019-02-21T02:27:41.632Z,0.00
2019-02-21T02:28:41.652Z,0.00
2019-02-21T02:29:41.609Z,0.00
2019-02-21T02:30:41.608Z,0.00
2019-02-21T02:31:41.622Z,0.00
2019-02-21T02:32:41.581Z,0.00
2019-02-21T02:33:41.566Z,0.00
2019-02-21T02:34:41.600Z,0.00
2019-02-21T02:35:41.575Z,0.00
2019-02-21T02:36:41.541Z,0.00
2019-02-21T02:37:41.557Z,0.00
2019-02-21T02:38:41.515Z,0.00
2019-02-21T02:39:41.507Z,0.00
2019-02-21T02:40:41.528Z,0.00
2019-02-21T02:41:41.480Z,0.00
2019-02-21T02:42:41.472Z,0.00
2019-02-21T02:43:41.542Z,0.00
2019-02-21T02:44:41.449Z,0.00
2019-02-21T02:45:41.475Z,0.00
2019-02-21T02:46:41.455Z,0.00
2019-02-21T02:47:41.420Z,0.00
2019-02-21T02:48:41.407Z,0.00
2019-02-21T02:49:41.398Z,0.00
2019-02-21T02:50:41.395Z,0.00
2019-02-21T02:51:41.430Z,0.00
2019-02-21T02:52:41.370Z,0.00
2019-02-21T02:53:41.354Z,0.00
2019-02-21T02:54:41.340Z,0.00
2019-02-21T02:55:41.367Z,0.00
2019-02-21T02:56:41.318Z,0.00
2019-02-21T02:57:41.339Z,0.00
2019-02-21T02:58:41.306Z,0.00
2019-02-21T02:59:41.419Z,0.00
2019-02-21T03:00:41.279Z,0.00
2019-02-21T03:01:41.309Z,0.00
2019-02-21T03:02:41.287Z,0.00
2019-02-21T03:03:41.251Z,0.00
2019-02-21T03:04:41.254Z,0.00
2019-02-21T03:05:41.220Z,0.00
2019-02-21T03:06:41.248Z,0.00
2019-02-21T03:07:41.199Z,0.00
2019-02-21T03:08:41.191Z,0.00
2019-02-21T03:09:41.178Z,0.00
2019-02-21T03:10:41.166Z,0.00
2019-02-21T03:11:41.162Z,0.00
2019-02-21T03:12:41.180Z,0.00
2019-02-21T03:13:41.132Z,0.00
2019-02-21T03:14:41.159Z,0.00
2019-02-21T03:15:41.115Z,0.00
2019-02-21T03:16:41.102Z,0.00
2019-02-21T03:17:41.101Z,0.00
2019-02-21T03:18:41.087Z,0.00
2019-02-21T03:19:41.103Z,0.00
2019-02-21T03:20:41.063Z,0.00
2019-02-21T03:21:41.050Z,0.00
2019-02-21T03:22:41.035Z,0.00
2019-02-21T03:23:41.032Z,0.00
2019-02-21T03:24:41.069Z,0.00
2019-02-21T03:25:41.003Z,0.00
2019-02-21T03:26:40.996Z,0.00
2019-02-21T03:27:40.993Z,0.00
2019-02-21T03:28:40.970Z,0.00
2019-02-21T03:29:41.090Z,0.00
2019-02-21T03:30:41.008Z,0.00
2019-02-21T03:31:53.405Z,0.00
2019-02-21T03:32:41.956Z,0.00
2019-02-21T03:33:40.917Z,0.00
2019-02-21T03:34:40.906Z,0.00
2019-02-21T03:35:40.971Z,0.00
2019-02-21T03:36:40.892Z,0.00
2019-02-21T03:37:40.881Z,0.00
2019-02-21T03:38:40.874Z,0.00
2019-02-21T03:39:40.848Z,0.00
2019-02-21T03:40:40.848Z,0.00
2019-02-21T03:41:40.876Z,0.00
2019-02-21T03:42:40.817Z,0.00
2019-02-21T03:43:40.813Z,0.00
2019-02-21T03:44:40.795Z,0.00
2019-02-21T03:45:40.792Z,0.00
2019-02-21T03:46:40.782Z,0.00
2019-02-21T03:47:40.795Z,0.00
2019-02-21T03:48:40.753Z,0.00
2019-02-21T03:49:40.747Z,0.00
2019-02-21T03:50:40.733Z,0.00
2019-02-21T03:51:40.720Z,0.00
2019-02-21T03:52:40.732Z,0.00
2019-02-21T03:53:40.696Z,0.00
2019-02-21T03:54:40.685Z,0.00
2019-02-21T03:55:40.680Z,0.00
2019-02-21T03:56:40.666Z,0.00
2019-02-21T03:57:40.675Z,0.00
2019-02-21T03:58:40.641Z,0.00
2019-02-21T03:59:40.632Z,0.00
2019-02-21T04:00:40.621Z,0.00
2019-02-21T04:01:40.611Z,0.00
2019-02-21T04:02:40.655Z,0.00
2019-02-21T04:03:40.590Z,0.00
2019-02-21T04:04:40.576Z,0.00
2019-02-21T04:05:40.581Z,0.00
2019-02-21T04:06:40.556Z,0.00
2019-02-21T04:07:40.553Z,0.00
2019-02-21T04:08:40.555Z,0.00
2019-02-21T04:09:40.525Z,0.00
2019-02-21T04:10:40.519Z,0.00
2019-02-21T04:11:40.500Z,0.00
2019-02-21T04:12:40.520Z,0.00
2019-02-21T04:13:40.479Z,0.00
2019-02-21T04:14:40.474Z,0.00
2019-02-21T04:15:40.463Z,0.00
2019-02-21T04:16:40.478Z,0.00
2019-02-21T04:17:40.433Z,0.00
2019-02-21T04:18:40.425Z,0.00
2019-02-21T04:19:40.448Z,0.00
2019-02-21T04:20:40.400Z,0.00
2019-02-21T04:21:40.441Z,0.00
2019-02-21T04:22:40.380Z,0.00
2019-02-21T04:23:40.372Z,0.00
2019-02-21T04:24:40.359Z,0.00
2019-02-21T04:25:40.352Z,0.00
2019-02-21T04:26:40.335Z,0.00
2019-02-21T04:27:40.361Z,0.00
2019-02-21T04:28:40.319Z,0.00
2019-02-21T04:29:40.305Z,0.00
2019-02-21T04:30:40.298Z,0.00
2019-02-21T04:31:40.297Z,0.00
2019-02-21T04:32:40.323Z,0.00
2019-02-21T04:33:40.265Z,0.00
2019-02-21T04:34:40.248Z,0.00
2019-02-21T04:35:40.241Z,0.00
2019-02-21T04:36:40.236Z,0.00
2019-02-21T04:37:40.218Z,0.00
2019-02-21T04:38:40.237Z,0.00
2019-02-21T04:39:40.205Z,0.00
2019-02-21T04:40:40.208Z,0.00
2019-02-21T04:41:40.174Z,0.00
2019-02-21T04:42:40.195Z,0.00
2019-02-21T04:43:40.152Z,0.00
2019-02-21T04:44:40.143Z,0.00
2019-02-21T04:45:40.131Z,0.00
2019-02-21T04:46:40.118Z,0.00
2019-02-21T04:47:47.175Z,0.00
2019-02-21T04:48:40.108Z,0.00
2019-02-21T04:49:40.087Z,0.00
2019-02-21T04:50:40.074Z,0.00
2019-02-21T04:51:40.063Z,0.00
2019-02-21T04:52:40.084Z,0.00
2019-02-21T04:53:40.098Z,0.00
2019-02-21T04:54:40.033Z,0.00
2019-02-21T04:55:40.026Z,0.00
2019-02-21T04:56:40.010Z,0.00
2019-02-21T04:57:40.000Z,0.00
2019-02-21T04:58:39.989Z,0.00
2019-02-21T04:59:40.036Z,0.00
2019-02-21T05:00:39.972Z,0.00
2019-02-21T05:01:40.451Z,0.00
2019-02-21T05:02:39.941Z,0.00
2019-02-21T05:03:39.939Z,0.00
2019-02-21T05:04:39.930Z,0.00
2019-02-21T05:05:39.943Z,0.00
2019-02-21T05:06:39.920Z,0.00
2019-02-21T05:07:39.894Z,0.00
2019-02-21T05:08:39.876Z,0.00
2019-02-21T05:09:39.876Z,0.00
2019-02-21T05:10:39.858Z,0.00
2019-02-21T05:11:39.866Z,0.00
2019-02-21T05:12:39.834Z,0.00
2019-02-21T05:13:39.834Z,0.00
2019-02-21T05:14:39.814Z,0.00
2019-02-21T05:15:39.810Z,0.00
2019-02-21T05:16:39.846Z,0.00
2019-02-21T05:17:39.782Z,0.00
2019-02-21T05:18:39.768Z,0.00
2019-02-21T05:19:39.758Z,0.00
2019-02-21T05:20:39.749Z,0.00
2019-02-21T05:21:39.740Z,0.00
2019-02-21T05:22:39.779Z,0.00
2019-02-21T05:23:39.722Z,0.00
2019-02-21T05:24:39.710Z,0.00
2019-02-21T05:25:39.695Z,0.00
2019-02-21T05:26:39.683Z,0.00
2019-02-21T05:27:39.676Z,0.00
2019-02-21T05:28:41.299Z,0.00
2019-02-21T05:29:39.649Z,0.00
2019-02-21T05:30:39.638Z,0.00
2019-02-21T05:31:39.627Z,0.00
2019-02-21T05:32:41.237Z,0.00
2019-02-21T05:33:39.618Z,0.00
2019-02-21T05:34:39.635Z,0.00
2019-02-21T05:35:39.584Z,0.00
2019-02-21T05:36:39.572Z,0.00
2019-02-21T05:37:39.564Z,0.00
2019-02-21T05:38:39.549Z,0.00
2019-02-21T05:39:39.546Z,0.00
2019-02-21T05:40:41.998Z,0.00
2019-02-21T05:41:39.521Z,0.00
2019-02-21T05:42:39.509Z,0.00
2019-02-21T05:43:39.496Z,0.00
2019-02-21T05:44:39.511Z,0.00
2019-02-21T05:45:39.485Z,0.00
2019-02-21T05:46:39.464Z,0.00
2019-02-21T05:47:39.475Z,0.00
2019-02-21T05:48:40.318Z,0.00
2019-02-21T05:49:39.449Z,0.00
2019-02-21T05:50:39.428Z,0.00
2019-02-21T05:51:39.417Z,0.00
2019-02-21T05:52:39.400Z,0.00
2019-02-21T05:53:39.408Z,0.00
2019-02-21T05:54:39.379Z,0.00
2019-02-21T05:55:39.381Z,0.00
2019-02-21T05:56:39.356Z,0.00
2019-02-21T05:57:39.345Z,0.00
2019-02-21T05:58:39.392Z,4.00
2019-02-21T05:59:39.328Z,4.00
2019-02-21T06:00:39.339Z,4.00
2019-02-21T06:01:39.300Z,4.00
2019-02-21T06:02:39.292Z,4.00
2019-02-21T06:03:39.288Z,8.00
2019-02-21T06:04:39.323Z,4.00
2019-02-21T06:05:39.260Z,8.00
2019-02-21T06:06:39.250Z,8.00
2019-02-21T06:07:39.241Z,8.00
2019-02-21T06:08:39.229Z,12.00
2019-02-21T06:09:39.222Z,16.00
2019-02-21T06:10:39.248Z,20.00
2019-02-21T06:11:39.206Z,20.00
2019-02-21T06:12:39.188Z,28.00
2019-02-21T06:13:39.174Z,28.00
2019-02-21T06:14:39.173Z,32.00
2019-02-21T06:15:39.152Z,40.00
2019-02-21T06:16:39.168Z,48.00
2019-02-21T06:17:39.130Z,56.00
2019-02-21T06:18:39.135Z,60.00
2019-02-21T06:19:39.153Z,72.00
2019-02-21T06:20:39.096Z,88.00
2019-02-21T06:21:39.119Z,100.00
2019-02-21T06:22:39.077Z,116.00
2019-02-21T06:23:39.494Z,132.00
2019-02-21T06:24:39.056Z,148.00
2019-02-21T06:25:50.517Z,168.00
2019-02-21T06:26:40.062Z,180.00
2019-02-21T06:27:39.022Z,204.00
2019-02-21T06:28:39.018Z,228.00
2019-02-21T06:29:39.007Z,256.00
2019-02-21T06:30:38.991Z,288.00
2019-02-21T06:31:39.015Z,316.00
2019-02-21T06:32:40.864Z,348.00
2019-02-21T06:33:38.959Z,384.00
2019-02-21T06:34:38.944Z,416.00
2019-02-21T06:35:38.933Z,452.00
2019-02-21T06:36:38.922Z,488.00
2019-02-21T06:37:38.915Z,532.00
2019-02-21T06:38:38.940Z,580.00
2019-02-21T06:39:38.891Z,624.00
2019-02-21T06:40:38.906Z,680.00
2019-02-21T06:41:38.883Z,732.00
2019-02-21T06:42:38.865Z,764.00
2019-02-21T06:43:38.855Z,780.00
2019-02-21T06:44:38.855Z,804.00
2019-02-21T06:45:38.909Z,832.00
2019-02-21T06:46:38.820Z,868.00
2019-02-21T06:47:38.807Z,904.00
2019-02-21T06:48:38.803Z,936.00
2019-02-21T06:49:38.836Z,984.00
2019-02-21T06:50:38.772Z,1028.00
2019-02-21T06:51:38.763Z,1076.00
2019-02-21T06:52:40.600Z,1120.00
2019-02-21T06:53:38.747Z,1180.00
2019-02-21T06:54:38.738Z,1288.00
2019-02-21T06:55:38.739Z,1412.00
2019-02-21T06:56:38.718Z,1516.00
2019-02-21T06:57:38.695Z,1588.00
2019-02-21T06:58:38.685Z,1640.00
2019-02-21T06:59:42.475Z,1688.00
2019-02-21T07:00:39.689Z,1748.00
2019-02-21T07:01:38.653Z,1824.00
2019-02-21T07:02:38.645Z,1912.00
2019-02-21T07:03:38.635Z,1972.00
2019-02-21T07:04:38.627Z,2000.00
2019-02-21T07:05:38.612Z,2028.00
2019-02-21T07:06:39.345Z,2036.00
2019-02-21T07:07:38.589Z,2048.00
2019-02-21T07:08:40.141Z,2120.00
2019-02-21T07:09:38.597Z,2252.00
2019-02-21T07:10:38.558Z,2420.00
2019-02-21T07:11:38.543Z,2664.00
2019-02-21T07:12:38.549Z,2796.00
2019-02-21T07:13:38.523Z,2884.00
2019-02-21T07:14:38.511Z,2840.00
2019-02-21T07:15:38.503Z,2664.00
2019-02-21T07:16:38.522Z,2732.00
2019-02-21T07:17:48.537Z,2672.00
2019-02-21T07:18:40.876Z,2692.00
2019-02-21T07:19:38.511Z,2780.00
2019-02-21T07:20:39.809Z,2912.00
2019-02-21T07:21:38.435Z,3036.00
2019-02-21T07:22:38.460Z,3196.00
2019-02-21T07:23:43.473Z,3396.00
2019-02-21T07:24:39.433Z,3628.00
2019-02-21T07:25:38.393Z,3856.00
2019-02-21T07:26:38.383Z,4040.00
2019-02-21T07:27:38.389Z,4128.00
2019-02-21T07:28:38.357Z,4116.00
2019-02-21T07:29:38.885Z,4068.00
2019-02-21T07:30:38.336Z,4072.00
2019-02-21T07:31:38.328Z,4136.00
2019-02-21T07:32:38.337Z,4240.00
2019-02-21T07:33:38.308Z,4368.00
2019-02-21T07:34:38.307Z,4500.00
2019-02-21T07:35:38.289Z,4644.00
2019-02-21T07:36:38.327Z,4888.00
2019-02-21T07:37:38.263Z,5816.00
2019-02-21T07:38:38.267Z,7624.00
2019-02-21T07:39:38.241Z,8092.00
2019-02-21T07:40:38.231Z,8340.00
2019-02-21T07:41:38.223Z,8492.00
2019-02-21T07:42:38.229Z,8692.00
2019-02-21T07:43:38.197Z,8820.00
2019-02-21T07:44:38.220Z,8972.00
2019-02-21T07:45:38.174Z,8752.00
2019-02-21T07:46:38.168Z,7908.00
2019-02-21T07:47:38.153Z,8268.00
2019-02-21T07:48:38.162Z,9256.00
2019-02-21T07:49:38.136Z,9604.00
2019-02-21T07:50:38.121Z,9568.00
2019-02-21T07:51:38.109Z,8292.00
2019-02-21T07:52:38.100Z,8924.00
2019-02-21T07:53:38.121Z,9492.00
2019-02-21T07:54:38.082Z,10724.00
2019-02-21T07:55:38.063Z,11512.00
2019-02-21T07:56:42.171Z,11568.00
2019-02-21T07:57:38.055Z,12716.00
2019-02-21T07:58:39.621Z,13896.00
2019-02-21T07:59:38.061Z,13208.00
2019-02-21T08:00:38.040Z,12952.00
2019-02-21T08:01:38.031Z,14848.00
2019-02-21T08:02:37.993Z,15872.00
2019-02-21T08:03:44.339Z,16448.00
2019-02-21T08:04:38.972Z,16192.00
2019-02-21T08:05:37.959Z,15552.00
2019-02-21T08:06:37.971Z,13644.00
2019-02-21T08:07:37.945Z,13052.00
2019-02-21T08:08:37.920Z,8744.00
2019-02-21T08:09:37.964Z,7692.00
2019-02-21T08:10:37.906Z,8060.00
2019-02-21T08:11:37.890Z,9100.00
2019-02-21T08:12:40.454Z,13380.00
2019-02-21T08:13:37.868Z,14336.00
2019-02-21T08:14:37.857Z,12588.00
2019-02-21T08:15:37.936Z,11232.00
2019-02-21T08:16:37.968Z,6648.00
2019-02-21T08:17:37.824Z,7524.00
2019-02-21T08:18:37.818Z,13188.00
2019-02-21T08:19:37.806Z,15936.00
2019-02-21T08:20:40.880Z,18688.00
2019-02-21T08:21:37.872Z,19712.00
2019-02-21T08:22:37.800Z,18144.00
2019-02-21T08:23:37.759Z,20352.00
2019-02-21T08:24:37.746Z,21984.00
2019-02-21T08:25:37.734Z,24032.00
2019-02-21T08:26:37.723Z,20416.00
2019-02-21T08:27:37.837Z,20640.00
2019-02-21T08:28:37.705Z,13816.00
2019-02-21T08:29:37.690Z,13548.00
2019-02-21T08:30:37.678Z,12764.00
2019-02-21T08:31:37.673Z,12080.00
2019-02-21T08:32:37.659Z,12840.00
2019-02-21T08:33:37.709Z,13212.00
2019-02-21T08:34:37.641Z,13924.00
2019-02-21T08:35:37.630Z,14248.00
2019-02-21T08:36:37.614Z,14072.00
2019-02-21T08:37:37.601Z,13096.00
2019-02-21T08:38:37.598Z,12552.00
2019-02-21T08:39:37.614Z,12524.00
2019-02-21T08:40:37.576Z,13372.00
2019-02-21T08:41:37.608Z,14564.00
2019-02-21T08:42:37.547Z,15312.00
2019-02-21T08:43:37.541Z,15216.00
2019-02-21T08:44:37.531Z,15452.00
2019-02-21T08:45:37.607Z,16128.00
2019-02-21T08:46:37.511Z,16000.00
2019-02-21T08:47:37.552Z,13756.00
2019-02-21T08:48:40.290Z,11084.00
2019-02-21T08:49:37.477Z,10588.00
2019-02-21T08:50:37.463Z,10608.00
2019-02-21T08:51:37.449Z,11156.00
2019-02-21T08:52:37.436Z,11888.00
2019-02-21T08:53:37.456Z,13352.00
2019-02-21T08:54:37.421Z,14664.00
2019-02-21T08:55:37.507Z,17088.00
2019-02-21T08:56:37.402Z,20672.00
2019-02-21T08:57:37.380Z,20512.00
2019-02-21T08:58:37.369Z,18496.00
2019-02-21T08:59:37.364Z,15968.00
2019-02-21T09:00:37.348Z,14788.00
2019-02-21T09:01:37.360Z,14296.00
2019-02-21T09:02:37.326Z,13268.00
2019-02-21T09:03:37.340Z,11496.00
2019-02-21T09:04:37.314Z,9828.00
2019-02-21T09:05:37.294Z,9628.00
2019-02-21T09:06:37.317Z,9776.00
2019-02-21T09:07:37.274Z,9844.00
2019-02-21T09:08:37.381Z,10596.00
2019-02-21T09:09:37.251Z,10920.00
2019-02-21T09:10:37.239Z,11648.00
2019-02-21T09:11:37.230Z,12084.00
2019-02-21T09:12:37.236Z,16256.00
2019-02-21T09:13:37.238Z,18848.00
2019-02-21T09:14:37.199Z,19584.00
2019-02-21T09:15:37.204Z,22656.00
2019-02-21T09:16:37.180Z,20288.00
2019-02-21T09:17:37.161Z,19744.00
2019-02-21T09:18:37.184Z,20928.00
2019-02-21T09:19:37.149Z,21504.00
2019-02-21T09:20:37.131Z,25408.00
2019-02-21T09:21:37.121Z,42976.00
2019-02-21T09:22:37.120Z,45216.00
2019-02-21T09:23:37.118Z,45280.00
2019-02-21T09:24:40.150Z,36736.00
2019-02-21T09:25:38.106Z,37568.00
2019-02-21T09:26:37.064Z,24832.00
2019-02-21T09:27:37.085Z,22048.00
2019-02-21T09:28:37.042Z,21600.00
2019-02-21T09:29:37.028Z,18784.00
2019-02-21T09:30:37.018Z,18112.00
2019-02-21T09:31:37.034Z,18112.00
2019-02-21T09:32:36.997Z,19456.00
2019-02-21T09:33:37.359Z,24640.00
2019-02-21T09:34:37.013Z,21472.00
2019-02-21T09:35:36.964Z,19360.00
2019-02-21T09:36:36.951Z,20416.00
2019-02-21T09:37:36.959Z,21728.00
2019-02-21T09:38:36.934Z,22720.00
2019-02-21T09:39:36.975Z,22336.00
2019-02-21T09:40:36.912Z,19872.00
2019-02-21T09:41:36.900Z,16512.00
2019-02-21T09:42:36.895Z,13708.00
2019-02-21T09:43:36.874Z,11820.00
2019-02-21T09:44:36.870Z,10388.00
2019-02-21T09:45:36.886Z,9416.00
2019-02-21T09:46:36.846Z,8808.00
2019-02-21T09:47:36.839Z,8128.00
2019-02-21T09:48:36.821Z,9396.00
2019-02-21T09:49:36.881Z,9952.00
2019-02-21T09:50:36.800Z,10008.00
2019-02-21T09:51:36.812Z,10752.00
2019-02-21T09:52:36.777Z,11504.00
2019-02-21T09:53:36.765Z,11132.00
2019-02-21T09:54:36.756Z,10156.00
2019-02-21T09:55:36.750Z,9480.00
2019-02-21T09:56:36.767Z,8920.00
2019-02-21T09:57:36.720Z,8384.00
2019-02-21T09:58:36.710Z,7948.00
2019-02-21T09:59:36.756Z,7596.00
2019-02-21T10:00:36.688Z,6792.00
2019-02-21T10:01:36.707Z,6272.00
2019-02-21T10:02:36.673Z,5956.00
2019-02-21T10:03:36.680Z,5632.00
2019-02-21T10:04:36.644Z,5280.00
2019-02-21T10:05:36.636Z,5152.00
2019-02-21T10:06:36.625Z,5304.00
2019-02-21T10:07:37.240Z,5644.00
2019-02-21T10:08:36.616Z,6164.00
2019-02-21T10:09:36.590Z,6548.00
2019-02-21T10:10:36.595Z,6504.00
2019-02-21T10:11:36.576Z,6704.00
2019-02-21T10:12:36.591Z,7060.00
2019-02-21T10:13:36.580Z,7280.00
2019-02-21T10:14:36.543Z,7520.00
2019-02-21T10:15:36.527Z,7780.00
2019-02-21T10:16:36.517Z,7744.00
2019-02-21T10:17:36.539Z,7636.00
2019-02-21T10:18:36.492Z,7900.00
2019-02-21T10:19:36.491Z,8188.00
2019-02-21T10:20:36.470Z,8428.00
2019-02-21T10:21:36.468Z,9320.00
2019-02-21T10:22:36.479Z,11240.00
2019-02-21T10:23:36.440Z,13056.00
2019-02-21T10:24:36.432Z,14804.00
2019-02-21T10:25:36.413Z,16068.00
2019-02-21T10:26:36.404Z,17120.00
2019-02-21T10:27:36.393Z,18016.00
2019-02-21T10:28:36.407Z,19040.00
2019-02-21T10:29:36.374Z,18464.00
2019-02-21T10:30:36.551Z,16228.00
2019-02-21T10:31:36.351Z,15032.00
2019-02-21T10:32:36.341Z,15388.00
2019-02-21T10:33:46.238Z,16800.00
2019-02-21T10:34:42.977Z,17088.00
2019-02-21T10:35:37.307Z,18048.00
2019-02-21T10:36:36.303Z,19552.00
2019-02-21T10:37:36.283Z,18240.00
2019-02-21T10:38:36.307Z,15672.00
2019-02-21T10:39:36.296Z,14936.00
2019-02-21T10:40:36.261Z,15044.00
2019-02-21T10:41:36.248Z,14928.00
2019-02-21T10:42:36.233Z,15616.00
2019-02-21T10:43:36.221Z,16832.00
2019-02-21T10:44:36.207Z,17472.00
2019-02-21T10:45:47.081Z,18496.00
2019-02-21T10:46:37.186Z,20000.00
2019-02-21T10:47:36.207Z,21056.00
2019-02-21T10:48:43.246Z,21792.00
2019-02-21T10:49:36.152Z,22176.00
2019-02-21T10:50:36.167Z,19072.00
2019-02-21T10:51:36.133Z,13308.00
2019-02-21T10:52:36.153Z,9120.00
2019-02-21T10:53:36.110Z,7604.00
2019-02-21T10:54:36.138Z,8588.00
2019-02-21T10:55:36.095Z,9656.00
2019-02-21T10:56:36.082Z,10568.00
2019-02-21T10:57:36.073Z,13268.00
2019-02-21T10:58:36.056Z,14092.00
2019-02-21T10:59:46.332Z,13852.00
2019-02-21T11:00:37.039Z,13684.00
2019-02-21T11:01:36.022Z,14112.00
2019-02-21T11:02:36.018Z,13176.00
2019-02-21T11:03:36.033Z,12568.00
2019-02-21T11:04:35.989Z,13552.00
2019-02-21T11:05:35.981Z,16032.00
2019-02-21T11:06:35.967Z,18112.00
2019-02-21T11:07:35.970Z,18400.00
2019-02-21T11:08:35.953Z,17728.00
2019-02-21T11:09:35.955Z,17504.00
2019-02-21T11:10:35.927Z,16336.00
2019-02-21T11:11:35.920Z,15292.00
2019-02-21T11:12:35.901Z,15932.00
2019-02-21T11:13:35.895Z,17088.00
2019-02-21T11:14:47.043Z,16864.00
2019-02-21T11:15:36.864Z,15892.00
2019-02-21T11:16:35.858Z,15148.00
2019-02-21T11:17:35.847Z,14152.00
2019-02-21T11:18:35.844Z,13940.00
2019-02-21T11:19:35.823Z,15404.00
2019-02-21T11:20:35.863Z,16672.00
2019-02-21T11:21:35.802Z,15244.00
2019-02-21T11:22:35.794Z,14000.00
2019-02-21T11:23:35.781Z,14032.00
2019-02-21T11:24:35.776Z,14296.00
2019-02-21T11:25:35.758Z,14612.00
2019-02-21T11:26:35.780Z,15088.00
2019-02-21T11:27:35.746Z,15680.00
2019-02-21T11:28:35.728Z,16316.00
2019-02-21T11:29:35.719Z,17216.00
2019-02-21T11:30:35.709Z,17984.00
2019-02-21T11:31:35.722Z,18304.00
2019-02-21T11:32:35.688Z,17696.00
2019-02-21T11:33:35.669Z,16832.00
2019-02-21T11:34:38.033Z,17184.00
2019-02-21T11:35:35.680Z,17440.00
2019-02-21T11:36:35.659Z,15388.00
2019-02-21T11:37:43.262Z,14440.00
2019-02-21T11:38:36.611Z,15264.00
2019-02-21T11:39:35.604Z,17184.00
2019-02-21T11:40:35.598Z,18080.00
2019-02-21T11:41:35.586Z,17632.00
2019-02-21T11:42:35.627Z,16960.00
2019-02-21T11:43:35.563Z,16928.00
2019-02-21T11:44:35.546Z,17280.00
2019-02-21T11:45:35.536Z,17568.00
2019-02-21T11:46:35.535Z,17024.00
2019-02-21T11:47:35.521Z,15608.00
2019-02-21T11:48:35.539Z,14144.00
2019-02-21T11:49:35.505Z,12984.00
2019-02-21T11:50:35.488Z,12192.00
2019-02-21T11:51:35.478Z,12040.00
2019-02-21T11:52:35.458Z,11848.00
2019-02-21T11:53:38.012Z,12016.00
2019-02-21T11:54:35.468Z,12748.00
2019-02-21T11:55:35.426Z,13432.00
2019-02-21T11:56:35.421Z,14124.00
2019-02-21T11:57:35.404Z,14972.00
2019-02-21T11:58:35.392Z,14420.00
2019-02-21T11:59:35.426Z,13900.00
2019-02-21T12:00:35.369Z,11656.00
2019-02-21T12:01:35.362Z,11052.00
2019-02-21T12:02:38.796Z,10676.00
2019-02-21T12:03:35.369Z,10244.00
2019-02-21T12:04:35.359Z,9948.00
2019-02-21T12:05:35.321Z,9956.00
2019-02-21T12:06:35.305Z,10232.00
2019-02-21T12:07:35.295Z,11916.00
2019-02-21T12:08:35.283Z,15196.00
2019-02-21T12:09:35.269Z,16016.00
2019-02-21T12:10:35.311Z,15976.00
2019-02-21T12:11:35.250Z,15656.00
2019-02-21T12:12:35.236Z,14952.00
2019-02-21T12:13:35.236Z,14280.00
2019-02-21T12:14:35.215Z,14348.00
2019-02-21T12:15:35.205Z,15536.00
2019-02-21T12:16:35.218Z,15936.00
2019-02-21T12:17:35.183Z,15684.00
2019-02-21T12:18:35.173Z,15364.00
2019-02-21T12:19:35.162Z,15040.00
2019-02-21T12:20:35.183Z,14520.00
2019-02-21T12:21:35.138Z,13480.00
2019-02-21T12:22:35.132Z,12968.00
2019-02-21T12:23:35.149Z,13048.00
2019-02-21T12:24:35.111Z,13208.00
2019-02-21T12:25:35.099Z,12536.00
2019-02-21T12:26:35.083Z,11652.00
2019-02-21T12:27:35.071Z,11196.00
2019-02-21T12:28:35.094Z,10868.00
2019-02-21T12:29:35.059Z,10544.00
2019-02-21T12:30:35.054Z,10196.00
2019-02-21T12:31:35.028Z,10068.00
2019-02-21T12:32:35.015Z,10488.00
2019-02-21T12:33:35.008Z,10712.00